Città:
 IT 
 EN 
 FR 
 DE 
 ES 

Dati meteo attuali Milano

Datameteo.com - Informazione e servizi avanzati per la meteorologia,la nautica e la protezione civile
Milano / Linate, Italy
Alba: 7:48 AM UTC1
Tramonto: 4:38 PM UTC1
 Lat: 45.42N, Lon: 9.27E
ICAO Used: LIML
Condizioni Meteo Attuali Aggiornate: 09.12.2022 alle 05:20 UTC
Debole Pioggia
Debole Pioggia
Molto Nuvoloso
Debole Pioggia
Temp: 5°C
Umidita': 100%
Direz/Vel. Vento: NE 3 / KT raffiche
Pressione: 1006 hPa
Punto di rugiada: 5°C
Temperatura percepita: 4°C
Visibilitą: 2000 m. (discreta)
Temperatura percepita in
presenza di vento (Wind Chill)
:
3°C
T. max (ultime 24 ore): 5°C
T. min (ultime 24 ore): 5°C


METAR ORIGINALE
LIML 090520Z 04003KT 2000 RA BR BKN015 05/05 Q1006 NOSIG



[ Indietro ]


Elaborazione dati by Datameteo.com - Lrc srl Copyright ©, All rights reserved.
Visualizza la versione web
©2010 Datameteo.com
weather mobile,mobile weather,meteo mobile,mobile meteo,meteo sul telefonino datameteo.com